sensor_id;sensor_type;location;lat;lon;timestamp;pressure;altitude;pressure_sealevel;temperature;humidity
59190;BME280;50749;51.636;4.948;2023-10-31T00:01:24;99769.03;;;17.47;71.20
59190;BME280;50749;51.636;4.948;2023-10-31T00:03:49;99768.22;;;17.46;70.96
59190;BME280;50749;51.636;4.948;2023-10-31T00:06:15;99767.44;;;17.46;70.96
59190;BME280;50749;51.636;4.948;2023-10-31T00:08:41;99761.91;;;17.46;71.13
59190;BME280;50749;51.636;4.948;2023-10-31T00:11:07;99765.47;;;17.46;71.22
59190;BME280;50749;51.636;4.948;2023-10-31T00:13:32;99776.50;;;17.46;70.75
59190;BME280;50749;51.636;4.948;2023-10-31T00:15:58;99772.16;;;17.45;70.84
59190;BME280;50749;51.636;4.948;2023-10-31T00:18:24;99774.94;;;17.45;71.00
59190;BME280;50749;51.636;4.948;2023-10-31T00:20:50;99780.47;;;17.45;71.07
59190;BME280;50749;51.636;4.948;2023-10-31T00:23:15;99772.56;;;17.44;70.95
59190;BME280;50749;51.636;4.948;2023-10-31T00:25:41;99776.09;;;17.44;70.80
59190;BME280;50749;51.636;4.948;2023-10-31T00:28:07;99765.03;;;17.44;70.90
59190;BME280;50749;51.636;4.948;2023-10-31T00:30:33;99775.69;;;17.42;71.19
59190;BME280;50749;51.636;4.948;2023-10-31T00:32:58;99772.56;;;17.44;70.67
59190;BME280;50749;51.636;4.948;2023-10-31T00:35:24;99780.06;;;17.43;71.13
59190;BME280;50749;51.636;4.948;2023-10-31T00:37:50;99782.00;;;17.43;70.72
59190;BME280;50749;51.636;4.948;2023-10-31T00:40:16;99781.22;;;17.42;70.87
59190;BME280;50749;51.636;4.948;2023-10-31T00:42:43;99791.09;;;17.43;70.90
59190;BME280;50749;51.636;4.948;2023-10-31T00:45:09;99789.50;;;17.42;71.04
59190;BME280;50749;51.636;4.948;2023-10-31T00:47:35;99790.66;;;17.41;71.07
59190;BME280;50749;51.636;4.948;2023-10-31T00:50:02;99798.97;;;17.41;71.12
59190;BME280;50749;51.636;4.948;2023-10-31T00:52:27;99800.16;;;17.40;70.91
59190;BME280;50749;51.636;4.948;2023-10-31T00:54:53;99796.56;;;17.40;70.85
59190;BME280;50749;51.636;4.948;2023-10-31T00:57:19;99797.75;;;17.39;71.04
59190;BME280;50749;51.636;4.948;2023-10-31T00:59:45;99798.53;;;17.39;71.04
59190;BME280;50749;51.636;4.948;2023-10-31T01:02:10;99808.03;;;17.38;70.89
59190;BME280;50749;51.636;4.948;2023-10-31T01:04:36;99800.91;;;17.37;71.17
59190;BME280;50749;51.636;4.948;2023-10-31T01:07:02;99811.94;;;17.37;70.83
59190;BME280;50749;51.636;4.948;2023-10-31T01:09:29;99804.03;;;17.36;71.17
59190;BME280;50749;51.636;4.948;2023-10-31T01:11:54;99807.97;;;17.35;70.99
59190;BME280;50749;51.636;4.948;2023-10-31T01:14:20;99813.50;;;17.35;71.19
59190;BME280;50749;51.636;4.948;2023-10-31T01:16:46;99812.72;;;17.34;71.16
59190;BME280;50749;51.636;4.948;2023-10-31T01:19:12;99811.13;;;17.33;71.13
59190;BME280;50749;51.636;4.948;2023-10-31T01:21:37;99815.84;;;17.33;71.25
59190;BME280;50749;51.636;4.948;2023-10-31T01:24:03;99823.34;;;17.32;71.19
59190;BME280;50749;51.636;4.948;2023-10-31T01:26:29;99812.66;;;17.31;71.27
59190;BME280;50749;51.636;4.948;2023-10-31T01:28:55;99821.75;;;17.31;71.42
59190;BME280;50749;51.636;4.948;2023-10-31T01:31:21;99814.22;;;17.28;71.29
59190;BME280;50749;51.636;4.948;2023-10-31T01:33:47;99818.56;;;17.29;71.60
59190;BME280;50749;51.636;4.948;2023-10-31T01:36:12;99825.25;;;17.28;71.30
59190;BME280;50749;51.636;4.948;2023-10-31T01:38:40;99822.09;;;17.26;71.31
59190;BME280;50749;51.636;4.948;2023-10-31T01:41:05;99829.22;;;17.27;71.63
59190;BME280;50749;51.636;4.948;2023-10-31T01:43:35;99835.91;;;17.26;71.47
59190;BME280;50749;51.636;4.948;2023-10-31T01:46:02;99841.41;;;17.26;71.48
59190;BME280;50749;51.636;4.948;2023-10-31T01:48:30;99841.41;;;17.26;71.62
59190;BME280;50749;51.636;4.948;2023-10-31T01:51:01;99848.13;;;17.25;71.29
59190;BME280;50749;51.636;4.948;2023-10-31T01:53:28;99845.38;;;17.25;71.29
59190;BME280;50749;51.636;4.948;2023-10-31T01:55:55;99857.59;;;17.24;71.26
59190;BME280;50749;51.636;4.948;2023-10-31T01:58:32;99843.78;;;17.24;71.57
59190;BME280;50749;51.636;4.948;2023-10-31T02:00:59;99854.03;;;17.23;71.60
59190;BME280;50749;51.636;4.948;2023-10-31T02:03:27;99855.97;;;17.23;71.54
59190;BME280;50749;51.636;4.948;2023-10-31T02:05:53;99853.59;;;17.21;71.67
59190;BME280;50749;51.636;4.948;2023-10-31T02:08:19;99861.50;;;17.23;71.65
59190;BME280;50749;51.636;4.948;2023-10-31T02:10:45;99856.34;;;17.21;71.53
59190;BME280;50749;51.636;4.948;2023-10-31T02:13:16;99865.81;;;17.20;71.51
59190;BME280;50749;51.636;4.948;2023-10-31T02:15:43;99857.53;;;17.20;71.69
59190;BME280;50749;51.636;4.948;2023-10-31T02:18:09;99854.00;;;17.20;71.52
59190;BME280;50749;51.636;4.948;2023-10-31T02:20:36;99863.06;;;17.20;71.75
59190;BME280;50749;51.636;4.948;2023-10-31T02:23:03;99852.41;;;17.19;71.41
59190;BME280;50749;51.636;4.948;2023-10-31T02:25:28;99856.75;;;17.20;71.74
59190;BME280;50749;51.636;4.948;2023-10-31T02:27:55;99857.13;;;17.18;71.87
59190;BME280;50749;51.636;4.948;2023-10-31T02:30:20;99859.91;;;17.18;71.89
59190;BME280;50749;51.636;4.948;2023-10-31T02:32:47;99859.06;;;17.18;71.69
59190;BME280;50749;51.636;4.948;2023-10-31T02:35:16;99857.50;;;17.17;71.54
59190;BME280;50749;51.636;4.948;2023-10-31T02:37:44;99865.78;;;17.17;71.70
59190;BME280;50749;51.636;4.948;2023-10-31T02:40:10;99860.25;;;17.17;71.49
59190;BME280;50749;51.636;4.948;2023-10-31T02:42:36;99861.44;;;17.16;71.69
59190;BME280;50749;51.636;4.948;2023-10-31T02:45:02;99865.38;;;17.15;71.54
59190;BME280;50749;51.636;4.948;2023-10-31T02:47:29;99863.41;;;17.15;71.46
59190;BME280;50749;51.636;4.948;2023-10-31T02:49:55;99868.13;;;17.15;71.81
59190;BME280;50749;51.636;4.948;2023-10-31T02:52:21;99863.78;;;17.14;71.69
59190;BME280;50749;51.636;4.948;2023-10-31T02:54:46;99872.84;;;17.14;71.50
59190;BME280;50749;51.636;4.948;2023-10-31T02:57:12;99872.06;;;17.14;71.61
59190;BME280;50749;51.636;4.948;2023-10-31T02:59:38;99867.69;;;17.13;72.00
59190;BME280;50749;51.636;4.948;2023-10-31T03:02:03;99872.81;;;17.11;71.93
59190;BME280;50749;51.636;4.948;2023-10-31T03:04:29;99878.34;;;17.11;72.05
59190;BME280;50749;51.636;4.948;2023-10-31T03:06:55;99889.75;;;17.09;72.00
59190;BME280;50749;51.636;4.948;2023-10-31T03:09:21;99894.47;;;17.08;71.58
59190;BME280;50749;51.636;4.948;2023-10-31T03:11:46;99886.19;;;17.08;72.01
59190;BME280;50749;51.636;4.948;2023-10-31T03:14:12;99894.47;;;17.08;71.62
59190;BME280;50749;51.636;4.948;2023-10-31T03:16:38;99895.66;;;17.07;71.88
59190;BME280;50749;51.636;4.948;2023-10-31T03:19:04;99901.53;;;17.06;71.66
59190;BME280;50749;51.636;4.948;2023-10-31T03:21:30;99906.28;;;17.05;71.77
59190;BME280;50749;51.636;4.948;2023-10-31T03:23:57;99905.84;;;17.03;71.96
59190;BME280;50749;51.636;4.948;2023-10-31T03:26:23;99901.50;;;17.02;72.12
59190;BME280;50749;51.636;4.948;2023-10-31T03:28:48;99918.84;;;17.03;72.15
59190;BME280;50749;51.636;4.948;2023-10-31T03:31:15;99915.31;;;17.02;72.15
59190;BME280;50749;51.636;4.948;2023-10-31T03:33:41;99925.56;;;17.02;72.10
59190;BME280;50749;51.636;4.948;2023-10-31T03:36:08;99921.19;;;17.01;71.89
59190;BME280;50749;51.636;4.948;2023-10-31T03:38:34;99925.16;;;17.00;72.06
59190;BME280;50749;51.636;4.948;2023-10-31T03:41:01;99931.44;;;17.00;72.04
59190;BME280;50749;51.636;4.948;2023-10-31T03:43:26;99934.59;;;16.99;72.31
59190;BME280;50749;51.636;4.948;2023-10-31T03:45:52;99939.69;;;16.97;72.02
59190;BME280;50749;51.636;4.948;2023-10-31T03:48:18;99940.47;;;16.97;72.05
59190;BME280;50749;51.636;4.948;2023-10-31T03:50:44;99948.34;;;16.95;72.32
59190;BME280;50749;51.636;4.948;2023-10-31T03:53:10;99941.63;;;16.96;72.14
59190;BME280;50749;51.636;4.948;2023-10-31T03:55:36;99933.75;;;16.95;72.10
59190;BME280;50749;51.636;4.948;2023-10-31T03:58:02;99946.75;;;16.94;72.09
59190;BME280;50749;51.636;4.948;2023-10-31T04:00:28;99948.72;;;16.94;72.32
59190;BME280;50749;51.636;4.948;2023-10-31T04:02:53;99948.72;;;16.94;72.31
59190;BME280;50749;51.636;4.948;2023-10-31T04:05:19;99958.97;;;16.93;72.43
59190;BME280;50749;51.636;4.948;2023-10-31T04:07:47;99958.16;;;16.93;72.30
59190;BME280;50749;51.636;4.948;2023-10-31T04:10:13;99967.63;;;16.92;72.27
59190;BME280;50749;51.636;4.948;2023-10-31T04:12:39;99962.47;;;16.90;72.32
59190;BME280;50749;51.636;4.948;2023-10-31T04:15:05;99960.50;;;16.90;72.41
59190;BME280;50749;51.636;4.948;2023-10-31T04:17:31;99959.72;;;16.90;72.14
59190;BME280;50749;51.636;4.948;2023-10-31T04:19:57;99959.28;;;16.88;72.46
59190;BME280;50749;51.636;4.948;2023-10-31T04:22:22;99964.81;;;16.88;72.38
59190;BME280;50749;51.636;4.948;2023-10-31T04:24:48;99968.34;;;16.88;72.51
59190;BME280;50749;51.636;4.948;2023-10-31T04:27:14;99975.03;;;16.87;72.47
59190;BME280;50749;51.636;4.948;2023-10-31T04:29:40;99974.25;;;16.87;72.24
59190;BME280;50749;51.636;4.948;2023-10-31T04:32:06;99972.66;;;16.86;72.53
59190;BME280;50749;51.636;4.948;2023-10-31T04:34:32;99967.50;;;16.84;72.71
59190;BME280;50749;51.636;4.948;2023-10-31T04:36:57;99973.84;;;16.85;72.43
59190;BME280;50749;51.636;4.948;2023-10-31T04:39:23;99974.97;;;16.84;72.35
59190;BME280;50749;51.636;4.948;2023-10-31T04:41:49;99974.25;;;16.87;72.56
59190;BME280;50749;51.636;4.948;2023-10-31T04:44:15;99968.78;;;16.90;72.59
59190;BME280;50749;51.636;4.948;2023-10-31T04:46:42;99964.50;;;16.93;72.60
59190;BME280;50749;51.636;4.948;2023-10-31T04:49:08;99970.44;;;16.95;72.31
59190;BME280;50749;51.636;4.948;2023-10-31T04:51:35;99970.47;;;16.99;72.36
59190;BME280;50749;51.636;4.948;2023-10-31T04:54:01;99978.41;;;17.00;72.21
59190;BME280;50749;51.636;4.948;2023-10-31T04:56:27;99970.16;;;17.04;72.57
59190;BME280;50749;51.636;4.948;2023-10-31T04:58:53;99966.25;;;17.05;72.59
59190;BME280;50749;51.636;4.948;2023-10-31T05:01:19;99978.84;;;17.06;72.47
59190;BME280;50749;51.636;4.948;2023-10-31T05:03:45;99979.31;;;17.08;72.80
59190;BME280;50749;51.636;4.948;2023-10-31T05:06:11;99988.38;;;17.08;72.54
59190;BME280;50749;51.636;4.948;2023-10-31T05:08:37;99989.94;;;17.09;72.67
59190;BME280;50749;51.636;4.948;2023-10-31T05:11:03;99993.16;;;17.12;72.37
59190;BME280;50749;51.636;4.948;2023-10-31T05:13:29;100003.03;;;17.13;72.55
59190;BME280;50749;51.636;4.948;2023-10-31T05:15:55;99995.56;;;17.13;72.53
59190;BME280;50749;51.636;4.948;2023-10-31T05:18:21;100006.22;;;17.15;72.79
59190;BME280;50749;51.636;4.948;2023-10-31T05:20:46;100007.00;;;17.15;72.62
59190;BME280;50749;51.636;4.948;2023-10-31T05:23:13;100016.09;;;17.16;72.50
59190;BME280;50749;51.636;4.948;2023-10-31T05:25:38;100025.59;;;17.18;72.61
59190;BME280;50749;51.636;4.948;2023-10-31T05:28:05;100016.94;;;17.20;72.60
59190;BME280;50749;51.636;4.948;2023-10-31T05:30:30;100024.06;;;17.21;72.71
59190;BME280;50749;51.636;4.948;2023-10-31T05:32:56;100027.22;;;17.23;72.50
59190;BME280;50749;51.636;4.948;2023-10-31T05:35:22;100023.31;;;17.24;72.52
59190;BME280;50749;51.636;4.948;2023-10-31T05:37:48;100027.69;;;17.25;72.75
59190;BME280;50749;51.636;4.948;2023-10-31T05:40:14;100029.66;;;17.28;72.81
59190;BME280;50749;51.636;4.948;2023-10-31T05:42:40;100041.94;;;17.31;72.62
59190;BME280;50749;51.636;4.948;2023-10-31T05:45:06;100039.59;;;17.33;72.94
59190;BME280;50749;51.636;4.948;2023-10-31T05:47:32;100042.38;;;17.33;72.75
59190;BME280;50749;51.636;4.948;2023-10-31T05:50:00;100050.28;;;17.34;72.75
59190;BME280;50749;51.636;4.948;2023-10-31T05:52:29;100057.41;;;17.35;72.74
59190;BME280;50749;51.636;4.948;2023-10-31T05:54:55;100060.59;;;17.37;72.85
59190;BME280;50749;51.636;4.948;2023-10-31T05:57:22;100060.59;;;17.37;72.56
59190;BME280;50749;51.636;4.948;2023-10-31T05:59:47;100053.47;;;17.36;72.50
59190;BME280;50749;51.636;4.948;2023-10-31T06:02:14;100057.09;;;17.40;71.33
59190;BME280;50749;51.636;4.948;2023-10-31T06:04:39;100064.19;;;17.41;72.03
59190;BME280;50749;51.636;4.948;2023-10-31T06:07:06;100068.50;;;17.39;71.39
59190;BME280;50749;51.636;4.948;2023-10-31T06:09:32;100065.38;;;17.40;72.09
59190;BME280;50749;51.636;4.948;2023-10-31T06:12:01;100074.09;;;17.42;72.22
59190;BME280;50749;51.636;4.948;2023-10-31T06:14:27;100081.22;;;17.43;72.38
59190;BME280;50749;51.636;4.948;2023-10-31T06:16:53;100077.28;;;17.44;72.53
59190;BME280;50749;51.636;4.948;2023-10-31T06:19:19;100085.97;;;17.46;72.29
59190;BME280;50749;51.636;4.948;2023-10-31T06:21:46;100085.97;;;17.46;72.34
59190;BME280;50749;51.636;4.948;2023-10-31T06:24:13;100087.59;;;17.48;72.36
59190;BME280;50749;51.636;4.948;2023-10-31T06:26:39;100093.09;;;17.48;72.30
59190;BME280;50749;51.636;4.948;2023-10-31T06:29:05;100090.75;;;17.50;72.34
59190;BME280;50749;51.636;4.948;2023-10-31T06:31:31;100098.69;;;17.51;72.21
59190;BME280;50749;51.636;4.948;2023-10-31T06:33:57;100109.72;;;17.51;72.53
59190;BME280;50749;51.636;4.948;2023-10-31T06:36:23;100099.50;;;17.52;72.27
59190;BME280;50749;51.636;4.948;2023-10-31T06:38:48;100099.50;;;17.52;72.53
59190;BME280;50749;51.636;4.948;2023-10-31T06:41:14;100104.22;;;17.51;72.41
59190;BME280;50749;51.636;4.948;2023-10-31T06:43:40;100108.22;;;17.54;71.79
59190;BME280;50749;51.636;4.948;2023-10-31T06:46:06;100108.22;;;17.54;70.34
59190;BME280;50749;51.636;4.948;2023-10-31T06:48:32;100111.34;;;17.52;70.96
59190;BME280;50749;51.636;4.948;2023-10-31T06:50:58;100111.34;;;17.52;71.09
59190;BME280;50749;51.636;4.948;2023-10-31T06:53:24;100120.41;;;17.53;71.66
59190;BME280;50749;51.636;4.948;2023-10-31T06:55:50;100123.97;;;17.53;71.23
59190;BME280;50749;51.636;4.948;2023-10-31T06:58:15;100127.91;;;17.52;70.93
59190;BME280;50749;51.636;4.948;2023-10-31T07:00:41;100125.56;;;17.54;71.58
59190;BME280;50749;51.636;4.948;2023-10-31T07:03:07;100129.94;;;17.55;71.83
59190;BME280;50749;51.636;4.948;2023-10-31T07:05:35;100126.72;;;17.53;71.11
59190;BME280;50749;51.636;4.948;2023-10-31T07:08:01;100123.19;;;17.53;70.03
59190;BME280;50749;51.636;4.948;2023-10-31T07:10:29;100132.66;;;17.52;71.20
59190;BME280;50749;51.636;4.948;2023-10-31T07:12:55;100139.75;;;17.53;71.33
59190;BME280;50749;51.636;4.948;2023-10-31T07:15:21;100141.75;;;17.52;71.75
59190;BME280;50749;51.636;4.948;2023-10-31T07:17:47;100134.25;;;17.53;71.24
59190;BME280;50749;51.636;4.948;2023-10-31T07:20:13;100140.13;;;17.51;71.49
59190;BME280;50749;51.636;4.948;2023-10-31T07:22:39;100142.53;;;17.53;71.26
59190;BME280;50749;51.636;4.948;2023-10-31T07:25:06;100142.53;;;17.53;71.26
59190;BME280;50749;51.636;4.948;2023-10-31T07:27:32;100146.47;;;17.52;71.28
59190;BME280;50749;51.636;4.948;2023-10-31T07:29:58;100149.25;;;17.52;71.56
59190;BME280;50749;51.636;4.948;2023-10-31T07:32:24;100151.19;;;17.51;71.45
59190;BME280;50749;51.636;4.948;2023-10-31T07:34:52;100160.28;;;17.52;71.62
59190;BME280;50749;51.636;4.948;2023-10-31T07:37:18;100162.25;;;17.51;71.34
59190;BME280;50749;51.636;4.948;2023-10-31T07:39:44;100164.63;;;17.53;71.72
59190;BME280;50749;51.636;4.948;2023-10-31T07:42:09;100153.16;;;17.51;71.51
59190;BME280;50749;51.636;4.948;2023-10-31T07:44:35;100148.44;;;17.51;71.74
59190;BME280;50749;51.636;4.948;2023-10-31T07:47:01;100158.69;;;17.51;71.44
59190;BME280;50749;51.636;4.948;2023-10-31T07:49:27;100161.44;;;17.51;71.44
59190;BME280;50749;51.636;4.948;2023-10-31T07:51:53;100157.09;;;17.50;71.27
59190;BME280;50749;51.636;4.948;2023-10-31T07:54:19;100160.22;;;17.48;71.30
59190;BME280;50749;51.636;4.948;2023-10-31T07:56:44;100156.28;;;17.49;71.60
59190;BME280;50749;51.636;4.948;2023-10-31T07:59:10;100162.59;;;17.50;71.65
59190;BME280;50749;51.636;4.948;2023-10-31T08:01:36;100157.09;;;17.50;71.45
59190;BME280;50749;51.636;4.948;2023-10-31T08:04:02;100166.56;;;17.49;71.46
59190;BME280;50749;51.636;4.948;2023-10-31T08:06:28;100164.59;;;17.49;71.22
59190;BME280;50749;51.636;4.948;2023-10-31T08:08:54;100170.09;;;17.49;71.26
59190;BME280;50749;51.636;4.948;2023-10-31T08:11:20;100173.25;;;17.48;71.19
59190;BME280;50749;51.636;4.948;2023-10-31T08:13:46;100170.47;;;17.48;71.33
59190;BME280;50749;51.636;4.948;2023-10-31T08:16:17;100175.63;;;17.49;71.43
59190;BME280;50749;51.636;4.948;2023-10-31T08:18:43;100171.28;;;17.48;71.02
59190;BME280;50749;51.636;4.948;2023-10-31T08:21:09;100172.09;;;17.49;71.24
59190;BME280;50749;51.636;4.948;2023-10-31T08:23:36;100181.53;;;17.48;71.31
59190;BME280;50749;51.636;4.948;2023-10-31T08:26:02;100187.06;;;17.48;71.10
59190;BME280;50749;51.636;4.948;2023-10-31T08:28:28;100186.28;;;17.47;71.14
59190;BME280;50749;51.636;4.948;2023-10-31T08:30:54;100185.44;;;17.46;71.18
59190;BME280;50749;51.636;4.948;2023-10-31T08:33:20;100200.88;;;17.48;71.10
59190;BME280;50749;51.636;4.948;2023-10-31T08:35:46;100196.50;;;17.46;71.00
59190;BME280;50749;51.636;4.948;2023-10-31T08:38:13;100190.19;;;17.46;71.31
59190;BME280;50749;51.636;4.948;2023-10-31T08:40:39;100192.94;;;17.46;71.39
59190;BME280;50749;51.636;4.948;2023-10-31T08:43:04;100192.94;;;17.46;71.34
59190;BME280;50749;51.636;4.948;2023-10-31T08:45:32;100196.50;;;17.46;71.22
59190;BME280;50749;51.636;4.948;2023-10-31T08:47:59;100194.94;;;17.45;71.00
59190;BME280;50749;51.636;4.948;2023-10-31T08:50:25;100201.25;;;17.46;70.94
59190;BME280;50749;51.636;4.948;2023-10-31T08:52:51;100202.03;;;17.46;71.29
59190;BME280;50749;51.636;4.948;2023-10-31T08:55:17;100212.28;;;17.46;71.32
59190;BME280;50749;51.636;4.948;2023-10-31T08:57:43;100211.50;;;17.45;71.08
59190;BME280;50749;51.636;4.948;2023-10-31T09:00:09;100217.03;;;17.45;71.30
59190;BME280;50749;51.636;4.948;2023-10-31T09:02:35;100222.56;;;17.45;71.12
59190;BME280;50749;51.636;4.948;2023-10-31T09:05:00;100217.81;;;17.46;71.17
59190;BME280;50749;51.636;4.948;2023-10-31T09:07:27;100235.19;;;17.46;71.25
59190;BME280;50749;51.636;4.948;2023-10-31T09:09:52;100237.16;;;17.46;71.37
59190;BME280;50749;51.636;4.948;2023-10-31T09:12:18;100235.19;;;17.46;71.33
59190;BME280;50749;51.636;4.948;2023-10-31T09:14:44;100243.88;;;17.45;71.16
59190;BME280;50749;51.636;4.948;2023-10-31T09:17:10;100242.69;;;17.46;71.19
59190;BME280;50749;51.636;4.948;2023-10-31T09:19:35;100250.19;;;17.45;71.25
59190;BME280;50749;51.636;4.948;2023-10-31T09:22:01;100264.00;;;17.45;71.32
59190;BME280;50749;51.636;4.948;2023-10-31T09:24:27;100265.97;;;17.45;70.93
59190;BME280;50749;51.636;4.948;2023-10-31T09:26:53;100269.53;;;17.45;70.92
59190;BME280;50749;51.636;4.948;2023-10-31T09:29:18;100276.22;;;17.44;71.24
59190;BME280;50749;51.636;4.948;2023-10-31T09:31:44;100286.13;;;17.45;71.22
59190;BME280;50749;51.636;4.948;2023-10-31T09:34:10;100284.50;;;17.44;70.97
59190;BME280;50749;51.636;4.948;2023-10-31T09:36:36;100293.63;;;17.45;71.03
59190;BME280;50749;51.636;4.948;2023-10-31T09:39:01;100293.97;;;17.43;71.18
59190;BME280;50749;51.636;4.948;2023-10-31T09:41:28;100287.28;;;17.44;71.02
59190;BME280;50749;51.636;4.948;2023-10-31T09:43:55;100295.56;;;17.44;71.17
59190;BME280;50749;51.636;4.948;2023-10-31T09:46:21;100290.41;;;17.43;71.22
59190;BME280;50749;51.636;4.948;2023-10-31T09:48:49;100293.97;;;17.43;71.07
59190;BME280;50749;51.636;4.948;2023-10-31T09:51:15;100296.75;;;17.43;70.98
59190;BME280;50749;51.636;4.948;2023-10-31T09:53:44;100306.19;;;17.42;71.27
59190;BME280;50749;51.636;4.948;2023-10-31T09:56:11;100307.34;;;17.41;71.03
59190;BME280;50749;51.636;4.948;2023-10-31T09:58:37;100306.19;;;17.42;71.30
59190;BME280;50749;51.636;4.948;2023-10-31T10:01:04;100306.19;;;17.42;71.28
59190;BME280;50749;51.636;4.948;2023-10-31T10:03:30;100314.47;;;17.42;71.13
59190;BME280;50749;51.636;4.948;2023-10-31T10:05:57;100321.97;;;17.42;70.91
59190;BME280;50749;51.636;4.948;2023-10-31T10:08:22;100320.38;;;17.41;71.09
59190;BME280;50749;51.636;4.948;2023-10-31T10:10:50;100316.00;;;17.40;70.91
59190;BME280;50749;51.636;4.948;2023-10-31T10:13:20;100325.09;;;17.40;70.91
59190;BME280;50749;51.636;4.948;2023-10-31T10:15:50;100323.50;;;17.39;71.06
59190;BME280;50749;51.636;4.948;2023-10-31T10:18:34;100331.44;;;17.41;71.16
59190;BME280;50749;51.636;4.948;2023-10-31T10:21:02;100328.22;;;17.39;71.24
59190;BME280;50749;51.636;4.948;2023-10-31T10:23:29;100332.97;;;17.38;70.99
59190;BME280;50749;51.636;4.948;2023-10-31T10:25:59;100333.41;;;17.40;71.05
59190;BME280;50749;51.636;4.948;2023-10-31T10:28:26;100329.03;;;17.39;71.23
59190;BME280;50749;51.636;4.948;2023-10-31T10:30:53;100331.78;;;17.39;70.78
59190;BME280;50749;51.636;4.948;2023-10-31T10:33:20;100342.84;;;17.39;71.03
59190;BME280;50749;51.636;4.948;2023-10-31T10:35:46;100337.69;;;17.38;71.09
59190;BME280;50749;51.636;4.948;2023-10-31T10:38:18;100344.03;;;17.38;70.85
59190;BME280;50749;51.636;4.948;2023-10-31T10:40:45;100338.50;;;17.38;71.23
59190;BME280;50749;51.636;4.948;2023-10-31T10:43:22;100344.03;;;17.38;70.94
59190;BME280;50749;51.636;4.948;2023-10-31T10:45:56;100345.97;;;17.38;71.03
59190;BME280;50749;51.636;4.948;2023-10-31T10:48:23;100349.91;;;17.37;71.01
59190;BME280;50749;51.636;4.948;2023-10-31T10:50:59;100349.91;;;17.37;71.13
59190;BME280;50749;51.636;4.948;2023-10-31T10:53:30;100356.22;;;17.37;71.03
59190;BME280;50749;51.636;4.948;2023-10-31T10:56:09;100356.22;;;17.37;71.21
59190;BME280;50749;51.636;4.948;2023-10-31T10:58:51;100361.75;;;17.37;70.93
59190;BME280;50749;51.636;4.948;2023-10-31T11:01:20;100353.81;;;17.36;71.05
59190;BME280;50749;51.636;4.948;2023-10-31T11:03:46;100364.88;;;17.36;70.95
59190;BME280;50749;51.636;4.948;2023-10-31T11:06:13;100365.25;;;17.34;70.99
59190;BME280;50749;51.636;4.948;2023-10-31T11:08:40;100363.28;;;17.35;71.22
59190;BME280;50749;51.636;4.948;2023-10-31T11:11:06;100365.25;;;17.34;70.88
59190;BME280;50749;51.636;4.948;2023-10-31T11:13:32;100371.56;;;17.35;70.92
59190;BME280;50749;51.636;4.948;2023-10-31T11:16:03;100360.50;;;17.35;70.99
59190;BME280;50749;51.636;4.948;2023-10-31T11:18:30;100369.19;;;17.33;71.09
59190;BME280;50749;51.636;4.948;2023-10-31T11:20:56;100363.66;;;17.33;70.78
59190;BME280;50749;51.636;4.948;2023-10-31T11:23:22;100364.81;;;17.32;71.01
59190;BME280;50749;51.636;4.948;2023-10-31T11:25:51;100364.38;;;17.30;70.97
59190;BME280;50749;51.636;4.948;2023-10-31T11:28:19;100372.75;;;17.34;70.96
59190;BME280;50749;51.636;4.948;2023-10-31T11:30:47;100368.38;;;17.33;70.94
59190;BME280;50749;51.636;4.948;2023-10-31T11:33:14;100368.72;;;17.31;70.95
59190;BME280;50749;51.636;4.948;2023-10-31T11:35:41;100370.69;;;17.31;70.95
59190;BME280;50749;51.636;4.948;2023-10-31T11:38:09;100372.31;;;17.32;71.02
59190;BME280;50749;51.636;4.948;2023-10-31T11:43:14;100371.50;;;17.31;71.04
59190;BME280;50749;51.636;4.948;2023-10-31T11:45:42;100369.56;;;17.32;71.03
59190;BME280;50749;51.636;4.948;2023-10-31T11:48:10;100360.44;;;17.31;70.93
59190;BME280;50749;51.636;4.948;2023-10-31T11:50:37;100365.97;;;17.31;71.04
59190;BME280;50749;51.636;4.948;2023-10-31T11:53:11;100371.94;;;17.33;70.97
59190;BME280;50749;51.636;4.948;2023-10-31T11:55:44;100365.97;;;17.31;70.87
59190;BME280;50749;51.636;4.948;2023-10-31T11:58:22;100376.59;;;17.29;70.78
59190;BME280;50749;51.636;4.948;2023-10-31T12:00:50;100371.50;;;17.31;70.80
59190;BME280;50749;51.636;4.948;2023-10-31T12:03:18;100370.69;;;17.31;70.80
59190;BME280;50749;51.636;4.948;2023-10-31T12:06:10;100365.97;;;17.31;71.18
59190;BME280;50749;51.636;4.948;2023-10-31T12:08:40;100369.91;;;17.30;71.31
59190;BME280;50749;51.636;4.948;2023-10-31T12:11:10;100377.03;;;17.31;71.09
59190;BME280;50749;51.636;4.948;2023-10-31T12:13:38;100368.31;;;17.29;70.96
59190;BME280;50749;51.636;4.948;2023-10-31T12:16:05;100366.69;;;17.28;70.87
59190;BME280;50749;51.636;4.948;2023-10-31T12:18:36;100369.91;;;17.30;71.04
59190;BME280;50749;51.636;4.948;2023-10-31T12:21:02;100380.97;;;17.30;70.90
59190;BME280;50749;51.636;4.948;2023-10-31T12:23:28;100377.75;;;17.28;71.41
59190;BME280;50749;51.636;4.948;2023-10-31T12:25:54;100374.97;;;17.28;71.35
59190;BME280;50749;51.636;4.948;2023-10-31T12:28:22;100377.75;;;17.28;70.91
59190;BME280;50749;51.636;4.948;2023-10-31T12:30:49;100379.34;;;17.29;71.05
59190;BME280;50749;51.636;4.948;2023-10-31T12:33:16;100391.56;;;17.28;71.43
59190;BME280;50749;51.636;4.948;2023-10-31T12:35:43;100380.16;;;17.30;71.08
59190;BME280;50749;51.636;4.948;2023-10-31T12:38:12;100379.78;;;17.31;71.23
59190;BME280;50749;51.636;4.948;2023-10-31T12:40:43;100383.72;;;17.30;71.15
59190;BME280;50749;51.636;4.948;2023-10-31T12:43:09;100382.13;;;17.29;71.26
59190;BME280;50749;51.636;4.948;2023-10-31T12:45:36;100377.75;;;17.28;71.15
59190;BME280;50749;51.636;4.948;2023-10-31T12:48:03;100388.88;;;17.32;71.40
59190;BME280;50749;51.636;4.948;2023-10-31T12:50:34;100389.25;;;17.30;71.48
59190;BME280;50749;51.636;4.948;2023-10-31T12:53:05;100393.88;;;17.26;71.31
59190;BME280;50749;51.636;4.948;2023-10-31T12:55:38;100392.75;;;17.27;71.42